logo
Search for airport 
image banner adimage banner adimage banner ad
image banner ad

EVCA - Cesis

Located in Cesis, Latvia

ICAO - EVCA, IATA -

Data provided by Airmate  

General information

Coordinates: N57°19'28" E25°19'25"
Elevation is 367 feet MSL.
Magnetic variation is +5° East
View others Airports in Cesis District

Operational data

Special qualification required
Current time UTC:
Current local time:
Weather at : - ( 0 km )
METAR: CBBC 281341Z AUTO 18005KT 5SM -SN UP OVC021 01/01 A2937 RMK PCPN 1.5MM PAST HR ICE MISG SLP948
View NOTAMs / SUP AIP / TFR affecting this airport [VIEW]
Communications frequencies: [VIEW]

Runways:

RWY identifierQFULength (ft)Width (ft)SurfaceLDA (ft)
03252698UNK
21252698UNK

Airport contact information

Address: Cesis Latvia

Satellite view of EVCA